createdAt,value
2023-04-05T00:01:19.353Z,6.67
2023-04-05T00:03:48.669Z,6.73
2023-04-05T00:06:17.110Z,5.90
2023-04-05T00:08:50.028Z,6.83
2023-04-05T00:11:18.883Z,7.13
2023-04-05T00:13:47.180Z,6.40
2023-04-05T00:16:17.368Z,6.80
2023-04-05T00:18:50.056Z,6.33
2023-04-05T00:21:21.928Z,7.27
2023-04-05T00:23:51.441Z,6.50
2023-04-05T00:26:20.069Z,6.30
2023-04-05T00:28:53.342Z,7.13
2023-04-05T00:31:23.101Z,6.53
2023-04-05T00:33:51.360Z,6.93
2023-04-05T00:36:21.310Z,7.20
2023-04-05T00:38:50.631Z,6.63
2023-04-05T00:41:18.897Z,7.07
2023-04-05T00:43:48.719Z,6.87
2023-04-05T00:46:17.325Z,6.67
2023-04-05T00:48:47.520Z,6.73
2023-04-05T00:51:17.370Z,6.33
2023-04-05T00:53:46.193Z,6.20
2023-04-05T00:56:16.879Z,6.47
2023-04-05T00:58:45.171Z,6.40
2023-04-05T01:01:18.373Z,7.10
2023-04-05T01:03:53.863Z,7.40
2023-04-05T01:06:38.874Z,7.00
2023-04-05T01:09:14.609Z,7.10
2023-04-05T01:11:44.331Z,6.83
2023-04-05T01:14:12.616Z,7.07
2023-04-05T01:16:40.919Z,6.80
2023-04-05T01:19:13.479Z,7.43
2023-04-05T01:22:14.318Z,7.63
2023-04-05T01:24:59.177Z,7.37
2023-04-05T01:27:43.956Z,7.40
2023-04-05T01:30:18.920Z,7.80
2023-04-05T01:33:02.716Z,7.37
2023-04-05T01:35:38.862Z,7.10
2023-04-05T01:38:11.548Z,7.57
2023-04-05T01:40:40.569Z,7.00
2023-04-05T01:43:14.827Z,7.60
2023-04-05T01:45:44.803Z,7.43
2023-04-05T01:48:13.393Z,7.17
2023-04-05T01:50:41.796Z,7.50
2023-04-05T01:53:10.131Z,7.23
2023-04-05T01:55:38.221Z,7.57
2023-04-05T01:58:06.370Z,7.33
2023-04-05T02:00:34.517Z,7.80
2023-04-05T02:03:03.993Z,7.73
2023-04-05T02:05:32.065Z,7.70
2023-04-05T02:08:00.140Z,7.57
2023-04-05T02:10:28.219Z,7.37
2023-04-05T02:12:56.645Z,6.50
2023-04-05T02:15:24.700Z,7.23
2023-04-05T02:17:54.157Z,7.50
2023-04-05T02:20:25.984Z,7.90
2023-04-05T02:22:54.091Z,7.37
2023-04-05T02:25:22.489Z,7.77
2023-04-05T02:27:50.652Z,7.70
2023-04-05T02:30:18.726Z,7.40
2023-04-05T02:32:47.036Z,7.60
2023-04-05T02:35:17.256Z,7.80
2023-04-05T02:37:46.782Z,7.40
2023-04-05T02:40:16.105Z,7.80
2023-04-05T02:42:44.145Z,8.03
2023-04-05T02:45:12.556Z,7.63
2023-04-05T02:47:41.189Z,7.73
2023-04-05T02:50:09.684Z,7.73
2023-04-05T02:52:43.411Z,8.20
2023-04-05T02:55:12.970Z,8.30
2023-04-05T02:57:41.187Z,8.07
2023-04-05T03:00:23.544Z,7.63
2023-04-05T03:02:53.279Z,7.63
2023-04-05T03:05:22.629Z,8.87
2023-04-05T03:07:53.371Z,8.33
2023-04-05T03:10:29.277Z,8.10
2023-04-05T03:13:04.284Z,8.60
2023-04-05T03:15:33.909Z,8.17
2023-04-05T03:18:08.105Z,8.33
2023-04-05T03:20:40.259Z,8.23
2023-04-05T03:23:14.457Z,8.20
2023-04-05T03:25:44.597Z,8.30
2023-04-05T03:28:13.516Z,7.93
2023-04-05T03:30:45.500Z,8.20
2023-04-05T03:33:19.999Z,8.00
2023-04-05T03:35:51.632Z,8.37
2023-04-05T03:38:20.572Z,8.10
2023-04-05T03:41:12.913Z,8.57
2023-04-05T03:43:41.076Z,8.47
2023-04-05T03:46:09.297Z,8.00
2023-04-05T03:48:37.872Z,7.87
2023-04-05T03:51:06.252Z,8.47
2023-04-05T03:53:34.302Z,8.27
2023-04-05T03:56:02.411Z,8.57
2023-04-05T03:58:54.177Z,8.10
2023-04-05T04:01:27.096Z,8.30
2023-04-05T04:03:55.337Z,8.20
2023-04-05T04:06:26.825Z,8.00
2023-04-05T04:08:54.963Z,8.93
2023-04-05T04:11:22.985Z,8.50
2023-04-05T04:13:53.156Z,8.57
2023-04-05T04:16:44.116Z,8.97
2023-04-05T04:19:34.291Z,9.27
2023-04-05T04:22:10.270Z,9.07
2023-04-05T04:24:56.971Z,8.90
2023-04-05T04:27:54.946Z,9.40
2023-04-05T04:30:50.587Z,8.83
2023-04-05T04:33:36.080Z,8.70
2023-04-05T04:36:37.098Z,9.13
2023-04-05T04:39:26.841Z,9.40
2023-04-05T04:42:22.802Z,8.60
2023-04-05T04:45:16.218Z,9.13
2023-04-05T04:47:52.875Z,9.23
2023-04-05T04:50:44.605Z,8.77
2023-04-05T04:53:13.648Z,9.07
2023-04-05T04:55:42.628Z,8.90
2023-04-05T04:58:11.819Z,8.97
2023-04-05T05:00:42.004Z,9.70
2023-04-05T05:03:12.002Z,9.63
2023-04-05T05:05:43.961Z,10.07
2023-04-05T05:08:12.207Z,10.37
2023-04-05T05:10:41.805Z,9.30
2023-04-05T05:13:11.248Z,10.07
2023-04-05T05:15:41.810Z,9.40
2023-04-05T05:18:12.519Z,9.97
2023-04-05T05:20:41.637Z,10.17
2023-04-05T05:23:10.127Z,8.87
2023-04-05T05:25:38.731Z,11.50
2023-04-05T05:28:06.963Z,9.83
2023-04-05T05:30:35.003Z,11.13
2023-04-05T05:33:03.085Z,10.70
2023-04-05T05:35:32.646Z,11.33
2023-04-05T05:38:01.423Z,11.43
2023-04-05T05:40:29.490Z,10.90
2023-04-05T05:42:57.526Z,10.90
2023-04-05T05:45:25.532Z,11.80
2023-04-05T05:47:53.650Z,13.63
2023-04-05T05:50:21.727Z,11.70
2023-04-05T05:52:51.523Z,11.30
2023-04-05T05:55:19.612Z,10.87
2023-04-05T05:57:47.623Z,10.83
2023-04-05T06:00:16.970Z,11.20
2023-04-05T06:02:45.106Z,11.00
2023-04-05T06:05:13.229Z,10.87
2023-04-05T06:07:41.305Z,10.30
2023-04-05T06:10:11.967Z,10.07
2023-04-05T06:12:40.034Z,9.33
2023-04-05T06:15:09.405Z,10.37
2023-04-05T06:17:42.058Z,10.00
2023-04-05T06:20:11.639Z,9.00
2023-04-05T06:22:40.933Z,9.23
2023-04-05T06:25:12.935Z,9.10
2023-04-05T06:27:41.185Z,9.33
2023-04-05T06:30:10.074Z,8.97
2023-04-05T06:32:38.186Z,8.03
2023-04-05T06:35:07.407Z,7.13
2023-04-05T06:37:35.443Z,7.83
2023-04-05T06:40:03.874Z,7.30
2023-04-05T06:42:33.331Z,6.83
2023-04-05T06:45:06.226Z,6.73
2023-04-05T06:47:35.592Z,6.40
2023-04-05T06:50:03.791Z,5.90
2023-04-05T06:52:31.886Z,5.90
2023-04-05T06:55:00.431Z,5.93
2023-04-05T06:57:28.827Z,5.97
2023-04-05T06:59:58.626Z,5.67
2023-04-05T07:02:26.967Z,4.90
2023-04-05T07:05:00.704Z,5.40
2023-04-05T07:07:28.881Z,5.27
2023-04-05T07:09:56.959Z,5.30
2023-04-05T07:12:25.141Z,5.60
2023-04-05T07:14:53.200Z,5.00
2023-04-05T07:17:22.793Z,5.30
2023-04-05T07:19:51.174Z,5.67
2023-04-05T07:22:19.341Z,5.33
2023-04-05T07:24:48.641Z,5.03
2023-04-05T07:27:17.009Z,4.57
2023-04-05T07:29:48.424Z,5.17
2023-04-05T07:32:16.832Z,4.77
2023-04-05T07:34:46.630Z,4.97
2023-04-05T07:37:15.099Z,4.90
2023-04-05T07:39:43.186Z,5.20
2023-04-05T07:42:11.318Z,5.10
2023-04-05T07:44:39.381Z,5.00
2023-04-05T07:47:07.649Z,5.00
2023-04-05T07:49:37.971Z,4.77
2023-04-05T07:52:07.816Z,5.07
2023-04-05T07:54:36.310Z,4.60
2023-04-05T07:57:04.692Z,4.87
2023-04-05T07:59:33.059Z,6.30
2023-04-05T08:02:08.382Z,5.10
2023-04-05T08:04:42.457Z,4.22
2023-04-05T08:07:13.015Z,4.43
2023-04-05T08:09:41.500Z,4.15
2023-04-05T08:12:11.544Z,4.85
2023-04-05T08:14:39.924Z,4.35
2023-04-05T08:17:08.174Z,4.57
2023-04-05T08:19:36.444Z,4.10
2023-04-05T08:22:04.706Z,4.75
2023-04-05T08:24:34.483Z,4.45
2023-04-05T08:27:02.789Z,4.72
2023-04-05T08:29:31.580Z,4.50
2023-04-05T08:31:59.912Z,4.88
2023-04-05T08:34:28.309Z,4.03
2023-04-05T08:36:59.850Z,3.90
2023-04-05T08:39:28.360Z,4.10
2023-04-05T08:42:04.760Z,4.40
2023-04-05T08:44:33.187Z,4.80
2023-04-05T08:47:02.268Z,4.43
2023-04-05T08:49:30.677Z,4.22
2023-04-05T08:52:02.115Z,4.43
2023-04-05T08:54:30.726Z,4.32
2023-04-05T08:57:01.369Z,4.10
2023-04-05T08:59:29.918Z,3.58
2023-04-05T09:02:01.015Z,3.58
2023-04-05T09:04:33.619Z,3.70
2023-04-05T09:07:05.969Z,4.10
2023-04-05T09:09:37.105Z,4.22
2023-04-05T09:12:08.883Z,4.13
2023-04-05T09:14:39.149Z,4.40
2023-04-05T09:17:07.999Z,3.88
2023-04-05T09:19:36.371Z,4.25
2023-04-05T09:22:05.799Z,3.60
2023-04-05T09:24:42.362Z,3.65
2023-04-05T09:27:13.577Z,3.40
2023-04-05T09:29:43.197Z,3.38
2023-04-05T09:32:12.968Z,3.25
2023-04-05T09:34:42.635Z,3.00
2023-04-05T09:37:19.979Z,3.17
2023-04-05T09:39:49.855Z,3.35
2023-04-05T09:42:22.969Z,3.22
2023-04-05T09:44:56.729Z,3.33
2023-04-05T09:47:27.604Z,2.60
2023-04-05T09:49:59.412Z,3.53
2023-04-05T09:52:31.947Z,3.60
2023-04-05T09:55:02.301Z,3.17
2023-04-05T09:57:36.160Z,3.05
2023-04-05T10:00:06.353Z,3.38
2023-04-05T10:02:42.866Z,2.88
2023-04-05T10:05:14.039Z,2.95
2023-04-05T10:07:43.185Z,3.03
2023-04-05T10:10:13.104Z,4.07
2023-04-05T10:12:45.544Z,3.33
2023-04-05T10:15:14.406Z,3.65
2023-04-05T10:17:49.854Z,3.30
2023-04-05T10:20:19.361Z,4.10
2023-04-05T10:22:58.509Z,3.40
2023-04-05T10:25:33.249Z,3.90
2023-04-05T10:28:05.748Z,3.80
2023-04-05T10:30:38.006Z,3.65
2023-04-05T10:33:14.945Z,3.50
2023-04-05T10:35:52.832Z,3.35
2023-04-05T10:38:26.141Z,3.40
2023-04-05T10:40:56.487Z,3.30
2023-04-05T10:43:27.377Z,3.20
2023-04-05T10:45:56.531Z,3.38
2023-04-05T10:48:35.755Z,2.90
2023-04-05T10:51:05.864Z,3.17
2023-04-05T10:53:35.454Z,3.50
2023-04-05T10:56:04.397Z,3.50
2023-04-05T10:58:35.683Z,3.00
2023-04-05T11:01:05.490Z,3.42
2023-04-05T11:03:43.924Z,3.42
2023-04-05T11:06:26.709Z,3.03
2023-04-05T11:08:58.188Z,3.20
2023-04-05T11:11:27.593Z,3.03
2023-04-05T11:13:58.246Z,3.25
2023-04-05T11:16:40.603Z,2.90
2023-04-05T11:19:09.069Z,2.83
2023-04-05T11:21:38.550Z,2.83
2023-04-05T11:24:08.856Z,3.20
2023-04-05T11:26:58.729Z,2.63
2023-04-05T11:29:54.441Z,2.70
2023-04-05T11:32:23.630Z,2.67
2023-04-05T11:35:06.693Z,2.70
2023-04-05T11:37:56.332Z,3.30
2023-04-05T11:40:29.906Z,2.78
2023-04-05T11:43:03.574Z,3.00
2023-04-05T11:45:34.295Z,3.33
2023-04-05T11:48:06.493Z,2.75
2023-04-05T11:50:35.464Z,2.90
2023-04-05T11:53:13.522Z,2.58
2023-04-05T11:55:43.915Z,2.47
2023-04-05T11:58:16.822Z,2.92
2023-04-05T12:00:47.412Z,2.92
2023-04-05T12:03:17.887Z,2.83
2023-04-05T12:05:51.041Z,2.72
2023-04-05T12:08:20.063Z,3.20
2023-04-05T12:10:56.361Z,2.50
2023-04-05T12:13:31.628Z,2.90
2023-04-05T12:16:02.210Z,3.10
2023-04-05T12:18:32.652Z,3.17
2023-04-05T12:21:03.694Z,2.90
2023-04-05T12:23:34.327Z,3.00
2023-04-05T12:26:03.836Z,3.30
2023-04-05T12:28:54.085Z,3.08
2023-04-05T12:31:40.145Z,3.10
2023-04-05T12:34:09.118Z,3.05
2023-04-05T12:36:37.620Z,2.92
2023-04-05T12:39:08.654Z,3.20
2023-04-05T12:41:38.000Z,3.17
2023-04-05T12:44:13.563Z,3.08
2023-04-05T12:46:44.058Z,3.22
2023-04-05T12:49:12.947Z,2.97
2023-04-05T12:51:44.104Z,2.90
2023-04-05T12:54:14.767Z,3.17
2023-04-05T12:56:43.678Z,3.38
2023-04-05T12:59:12.175Z,3.60
2023-04-05T13:01:40.552Z,3.40
2023-04-05T13:04:16.138Z,2.90
2023-04-05T13:06:47.327Z,3.05
2023-04-05T13:09:16.217Z,2.80
2023-04-05T13:11:44.393Z,3.22
2023-04-05T13:14:12.711Z,3.05
2023-04-05T13:16:41.128Z,2.92
2023-04-05T13:19:10.923Z,2.83
2023-04-05T13:21:39.485Z,2.65
2023-04-05T13:24:08.839Z,2.55
2023-04-05T13:26:37.792Z,2.65
2023-04-05T13:29:06.085Z,2.60
2023-04-05T13:31:34.685Z,2.58
2023-04-05T13:34:03.022Z,2.80
2023-04-05T13:36:32.632Z,2.42
2023-04-05T13:39:00.936Z,2.70
2023-04-05T13:41:29.437Z,2.95
2023-04-05T13:43:59.359Z,2.58
2023-04-05T13:46:29.471Z,2.95
2023-04-05T13:48:57.854Z,2.80
2023-04-05T13:51:28.659Z,2.70
2023-04-05T13:53:58.815Z,2.88
2023-04-05T13:56:27.051Z,2.40
2023-04-05T13:58:55.373Z,2.75
2023-04-05T14:01:23.845Z,2.40
2023-04-05T14:03:52.351Z,2.85
2023-04-05T14:06:20.820Z,3.38
2023-04-05T14:08:54.960Z,2.70
2023-04-05T14:11:25.102Z,3.10
2023-04-05T14:13:53.464Z,2.80
2023-04-05T14:16:21.812Z,2.53
2023-04-05T14:18:50.173Z,3.03
2023-04-05T14:21:18.576Z,2.70
2023-04-05T14:23:47.324Z,3.00
2023-04-05T14:26:15.645Z,2.58
2023-04-05T14:28:45.398Z,3.05
2023-04-05T14:31:13.729Z,3.17
2023-04-05T14:33:42.102Z,3.22
2023-04-05T14:36:10.383Z,3.08
2023-04-05T14:38:38.784Z,2.80
2023-04-05T14:41:07.215Z,2.67
2023-04-05T14:43:35.756Z,3.08
2023-04-05T14:46:05.646Z,3.50
2023-04-05T14:48:34.210Z,4.93
2023-04-05T14:51:02.500Z,3.30
2023-04-05T14:53:33.874Z,3.00
2023-04-05T14:56:02.166Z,3.38
2023-04-05T14:58:30.718Z,3.03
2023-04-05T15:00:59.057Z,3.40
2023-04-05T15:03:30.633Z,2.55
2023-04-05T15:05:59.506Z,3.10
2023-04-05T15:08:27.982Z,2.63
2023-04-05T15:10:56.339Z,2.97
2023-04-05T15:13:26.313Z,3.17
2023-04-05T15:15:54.571Z,3.20
2023-04-05T15:18:22.819Z,3.38
2023-04-05T15:20:53.423Z,2.90
2023-04-05T15:23:21.613Z,4.10
2023-04-05T15:25:50.284Z,3.10
2023-04-05T15:28:18.339Z,3.20
2023-04-05T15:30:46.439Z,5.15
2023-04-05T15:33:14.534Z,3.30
2023-04-05T15:35:42.650Z,3.00
2023-04-05T15:38:12.314Z,3.17
2023-04-05T15:40:40.414Z,3.25
2023-04-05T15:43:08.505Z,2.97
2023-04-05T15:45:36.606Z,3.10
2023-04-05T15:48:04.964Z,3.20
2023-04-05T15:50:33.108Z,3.15
2023-04-05T15:53:01.275Z,3.00
2023-04-05T15:55:30.868Z,3.38
2023-04-05T15:57:58.961Z,3.30
2023-04-05T16:00:27.623Z,3.15
2023-04-05T16:03:00.530Z,6.55
2023-04-05T16:05:29.224Z,4.05
2023-04-05T16:07:57.312Z,3.67
2023-04-05T16:10:26.094Z,4.10
2023-04-05T16:12:55.693Z,3.60
2023-04-05T16:15:24.590Z,3.67
2023-04-05T16:17:52.822Z,3.40
2023-04-05T16:20:22.054Z,3.45
2023-04-05T16:22:50.250Z,3.00
2023-04-05T16:25:18.705Z,4.80
2023-04-05T16:27:46.780Z,3.40
2023-04-05T16:30:16.816Z,3.70
2023-04-05T16:32:44.963Z,3.50
2023-04-05T16:35:13.065Z,3.40
2023-04-05T16:37:42.882Z,3.35
2023-04-05T16:40:11.962Z,3.55
2023-04-05T16:42:40.100Z,3.17
2023-04-05T16:45:08.968Z,3.22
2023-04-05T16:47:38.546Z,3.00
2023-04-05T16:50:07.628Z,3.53
2023-04-05T16:52:35.841Z,3.42
2023-04-05T16:55:04.230Z,3.40
2023-04-05T16:57:32.811Z,3.60
2023-04-05T17:00:00.892Z,3.08
2023-04-05T17:02:29.256Z,3.50
2023-04-05T17:04:58.757Z,3.80
2023-04-05T17:07:27.048Z,6.75
2023-04-05T17:09:57.145Z,3.70
2023-04-05T17:12:25.398Z,3.13
2023-04-05T17:14:53.438Z,3.58
2023-04-05T17:17:21.552Z,3.80
2023-04-05T17:19:49.629Z,4.10
2023-04-05T17:22:19.126Z,3.35
2023-04-05T17:24:47.525Z,4.20
2023-04-05T17:27:15.714Z,3.65
2023-04-05T17:29:43.804Z,3.90
2023-04-05T17:32:11.900Z,3.20
2023-04-05T17:34:40.022Z,3.40
2023-04-05T17:37:08.099Z,3.28
2023-04-05T17:39:37.563Z,3.58
2023-04-05T17:42:05.768Z,4.30
2023-04-05T17:44:34.033Z,5.88
2023-04-05T17:47:09.065Z,4.85
2023-04-05T17:49:38.012Z,4.05
2023-04-05T17:52:08.532Z,3.50
2023-04-05T17:54:39.955Z,3.38
2023-04-05T17:57:15.178Z,3.38
2023-04-05T17:59:44.116Z,3.20
2023-04-05T18:02:12.455Z,3.22
2023-04-05T18:04:41.172Z,3.30
2023-04-05T18:07:09.604Z,3.65
2023-04-05T18:09:41.974Z,3.58
2023-04-05T18:12:10.666Z,3.33
2023-04-05T18:14:38.832Z,3.42
2023-04-05T18:17:07.420Z,4.75
2023-04-05T18:19:35.806Z,4.80
2023-04-05T18:22:03.936Z,4.65
2023-04-05T18:24:32.499Z,4.47
2023-04-05T18:27:02.145Z,5.30
2023-04-05T18:29:30.863Z,5.00
2023-04-05T18:31:59.082Z,4.80
2023-04-05T18:34:27.287Z,4.80
2023-04-05T18:36:55.345Z,4.90
2023-04-05T18:39:26.215Z,4.80
2023-04-05T18:41:56.040Z,4.75
2023-04-05T18:44:26.198Z,4.90
2023-04-05T18:46:54.410Z,5.20
2023-04-05T18:49:22.530Z,5.38
2023-04-05T18:51:50.679Z,4.70
2023-04-05T18:54:19.353Z,4.80
2023-04-05T18:56:47.509Z,4.80
2023-04-05T18:59:16.375Z,5.00
2023-04-05T19:01:46.023Z,5.00
2023-04-05T19:04:16.222Z,5.55
2023-04-05T19:06:44.422Z,5.60
2023-04-05T19:09:15.852Z,5.53
2023-04-05T19:11:44.100Z,5.40
2023-04-05T19:14:12.260Z,5.40
2023-04-05T19:16:40.317Z,5.50
2023-04-05T19:19:10.113Z,5.15
2023-04-05T19:21:38.302Z,5.50
2023-04-05T19:24:08.787Z,5.22
2023-04-05T19:26:38.038Z,5.60
2023-04-05T19:29:07.447Z,5.72
2023-04-05T19:31:36.880Z,5.35
2023-04-05T19:34:07.522Z,5.77
2023-04-05T19:36:37.723Z,5.63
2023-04-05T19:39:07.248Z,5.70
2023-04-05T19:41:36.082Z,6.17
2023-04-05T19:44:08.771Z,6.53
2023-04-05T19:46:39.954Z,5.57
2023-04-05T19:49:11.577Z,5.87
2023-04-05T19:51:43.106Z,6.80
2023-04-05T19:54:14.720Z,6.20
2023-04-05T19:56:43.037Z,6.20
2023-04-05T19:59:30.129Z,6.10
2023-04-05T20:01:59.575Z,6.30
2023-04-05T20:04:29.269Z,6.60
2023-04-05T20:06:58.862Z,6.20
2023-04-05T20:09:29.321Z,6.57
2023-04-05T20:11:59.077Z,6.70
2023-04-05T20:14:30.389Z,6.57
2023-04-05T20:16:59.327Z,6.83
2023-04-05T20:19:30.686Z,6.57
2023-04-05T20:22:01.803Z,6.97
2023-04-05T20:24:30.471Z,6.87
2023-04-05T20:26:58.674Z,6.53
2023-04-05T20:29:32.239Z,6.83
2023-04-05T20:32:02.063Z,7.13
2023-04-05T20:34:32.713Z,7.73
2023-04-05T20:37:03.196Z,9.13
2023-04-05T20:39:31.755Z,9.43
2023-04-05T20:42:00.200Z,10.90
2023-04-05T20:44:28.453Z,9.00
2023-04-05T20:46:58.088Z,9.33
2023-04-05T20:49:29.854Z,10.10
2023-04-05T20:51:59.935Z,11.27
2023-04-05T20:54:29.475Z,10.37
2023-04-05T20:56:57.613Z,9.70
2023-04-05T20:59:26.243Z,10.27
2023-04-05T21:01:54.499Z,9.07
2023-04-05T21:04:22.703Z,9.33
2023-04-05T21:06:50.812Z,8.53
2023-04-05T21:09:18.973Z,9.33
2023-04-05T21:11:48.452Z,8.40
2023-04-05T21:14:16.513Z,8.40
2023-04-05T21:16:44.610Z,9.43
2023-04-05T21:19:12.691Z,8.67
2023-04-05T21:21:40.871Z,8.40
2023-04-05T21:24:09.063Z,8.10
2023-04-05T21:26:37.091Z,8.77
2023-04-05T21:29:06.857Z,8.90
2023-04-05T21:31:35.243Z,9.03
2023-04-05T21:34:03.413Z,8.87
2023-04-05T21:36:31.494Z,9.13
2023-04-05T21:38:59.588Z,9.63
2023-04-05T21:41:27.713Z,8.33
2023-04-05T21:43:55.729Z,7.80
2023-04-05T21:46:25.225Z,7.97
2023-04-05T21:48:53.342Z,7.63
2023-04-05T21:51:21.778Z,7.80
2023-04-05T21:53:49.869Z,8.03
2023-04-05T21:56:19.087Z,7.63
2023-04-05T21:58:47.172Z,7.63
2023-04-05T22:01:15.412Z,7.83
2023-04-05T22:03:44.936Z,8.37
2023-04-05T22:06:13.044Z,8.47
2023-04-05T22:08:41.271Z,7.97
2023-04-05T22:11:09.527Z,8.20
2023-04-05T22:13:37.611Z,8.67
2023-04-05T22:16:05.891Z,8.10
2023-04-05T22:18:34.107Z,7.50
2023-04-05T22:21:03.720Z,8.50
2023-04-05T22:23:31.811Z,8.47
2023-04-05T22:25:59.906Z,8.40
2023-04-05T22:28:28.012Z,8.57
2023-04-05T22:30:56.255Z,8.33
2023-04-05T22:33:24.344Z,8.47
2023-04-05T22:35:52.869Z,8.80
2023-04-05T22:38:22.320Z,8.27
2023-04-05T22:40:50.735Z,8.90
2023-04-05T22:43:18.795Z,9.53
2023-04-05T22:45:49.771Z,9.20
2023-04-05T22:48:17.952Z,8.77
2023-04-05T22:50:45.994Z,9.17
2023-04-05T22:53:14.120Z,8.70
2023-04-05T22:55:43.608Z,9.10
2023-04-05T22:58:11.735Z,8.67
2023-04-05T23:00:39.915Z,9.07
2023-04-05T23:03:08.066Z,9.17
2023-04-05T23:05:36.895Z,9.20
2023-04-05T23:08:05.211Z,8.83
2023-04-05T23:10:33.265Z,9.33
2023-04-05T23:13:02.716Z,8.47
2023-04-05T23:15:31.063Z,9.20
2023-04-05T23:17:59.197Z,9.33
2023-04-05T23:20:27.326Z,9.07
2023-04-05T23:22:55.428Z,9.50
2023-04-05T23:25:23.755Z,9.27
2023-04-05T23:27:53.752Z,9.77
2023-04-05T23:30:23.310Z,9.87
2023-04-05T23:32:51.469Z,9.53
2023-04-05T23:35:19.682Z,8.97
2023-04-05T23:37:47.851Z,9.70
2023-04-05T23:40:16.172Z,10.00
2023-04-05T23:42:44.229Z,9.77
2023-04-05T23:45:12.664Z,10.00
2023-04-05T23:47:42.198Z,9.57
2023-04-05T23:50:11.299Z,9.47
2023-04-05T23:52:39.352Z,9.27
2023-04-05T23:55:08.181Z,9.50
2023-04-05T23:57:36.313Z,9.23
